createdAt,value
2023-01-08T00:02:35.000Z,100
2023-01-08T00:07:34.000Z,100
2023-01-08T00:12:34.000Z,100
2023-01-08T00:17:35.000Z,100
2023-01-08T00:27:35.000Z,100
2023-01-08T00:32:35.000Z,100
2023-01-08T00:37:34.000Z,100
2023-01-08T00:42:34.000Z,100
2023-01-08T00:47:35.000Z,100
2023-01-08T00:52:34.000Z,100
2023-01-08T00:57:35.000Z,100
2023-01-08T01:02:35.000Z,100
2023-01-08T01:07:35.000Z,100
2023-01-08T01:12:34.000Z,100
2023-01-08T01:17:35.000Z,100
2023-01-08T01:22:35.000Z,100
2023-01-08T01:27:34.000Z,100
2023-01-08T01:32:35.000Z,100
2023-01-08T01:37:34.000Z,100
2023-01-08T01:42:35.000Z,100
2023-01-08T01:52:35.000Z,100
2023-01-08T01:57:35.000Z,100
2023-01-08T02:02:35.000Z,100
2023-01-08T02:07:35.000Z,100
2023-01-08T02:12:34.000Z,100
2023-01-08T02:17:35.000Z,100
2023-01-08T02:22:34.000Z,100
2023-01-08T02:27:34.000Z,100
2023-01-08T02:32:35.000Z,100
2023-01-08T02:37:35.000Z,100
2023-01-08T02:42:35.000Z,100
2023-01-08T02:47:34.000Z,100
2023-01-08T02:52:35.000Z,100
2023-01-08T02:57:34.000Z,100
2023-01-08T03:02:35.000Z,100
2023-01-08T03:07:34.000Z,100
2023-01-08T03:12:35.000Z,100
2023-01-08T03:17:34.000Z,100
2023-01-08T03:22:35.000Z,100
2023-01-08T03:27:35.000Z,100
2023-01-08T03:32:35.000Z,100
2023-01-08T03:37:35.000Z,100
2023-01-08T03:47:34.000Z,100
2023-01-08T03:52:35.000Z,100
2023-01-08T03:57:35.000Z,100
2023-01-08T04:02:35.000Z,100
2023-01-08T04:07:35.000Z,100
2023-01-08T04:12:35.000Z,100
2023-01-08T04:17:34.000Z,100
2023-01-08T04:22:35.000Z,100
2023-01-08T04:27:34.000Z,100
2023-01-08T04:32:35.000Z,100
2023-01-08T04:37:34.000Z,100
2023-01-08T04:42:35.000Z,100
2023-01-08T04:52:35.000Z,100
2023-01-08T04:57:35.000Z,100
2023-01-08T05:02:35.000Z,100
2023-01-08T05:07:34.000Z,100
2023-01-08T05:12:35.000Z,100
2023-01-08T05:17:35.000Z,100
2023-01-08T05:22:35.000Z,100
2023-01-08T05:27:35.000Z,100
2023-01-08T05:32:34.000Z,100
2023-01-08T05:37:35.000Z,100
2023-01-08T05:42:35.000Z,100
2023-01-08T05:47:34.000Z,100
2023-01-08T05:52:35.000Z,100
2023-01-08T05:57:35.000Z,100
2023-01-08T06:02:35.000Z,100
2023-01-08T06:07:35.000Z,100
2023-01-08T06:12:35.000Z,100
2023-01-08T06:17:34.000Z,100
2023-01-08T06:22:35.000Z,100
2023-01-08T06:27:35.000Z,100
2023-01-08T06:32:34.000Z,100
2023-01-08T06:37:35.000Z,100
2023-01-08T06:42:34.000Z,100
2023-01-08T06:47:35.000Z,100
2023-01-08T06:52:35.000Z,100
2023-01-08T06:57:35.000Z,99.96
2023-01-08T07:02:36.000Z,97.99
2023-01-08T07:07:35.000Z,98.63
2023-01-08T07:12:34.000Z,100
2023-01-08T07:17:35.000Z,100
2023-01-08T07:22:35.000Z,100
2023-01-08T07:27:35.000Z,100
2023-01-08T07:32:34.000Z,100
2023-01-08T07:37:35.000Z,100
2023-01-08T07:42:34.000Z,99.87
2023-01-08T07:47:35.000Z,99.91
2023-01-08T07:52:34.000Z,99.85
2023-01-08T07:57:35.000Z,77.01
2023-01-08T08:02:35.000Z,51.47
2023-01-08T08:07:35.000Z,46.6
2023-01-08T08:12:35.000Z,47.49
2023-01-08T08:17:34.000Z,45.84
2023-01-08T08:22:35.000Z,45.73
2023-01-08T08:27:35.000Z,47.23
2023-01-08T08:32:35.000Z,50.6
2023-01-08T08:37:34.000Z,52.54
2023-01-08T08:42:35.000Z,52.54
2023-01-08T08:47:35.000Z,52.51
2023-01-08T08:52:35.000Z,54.66
2023-01-08T08:57:34.000Z,59.37
2023-01-08T09:02:35.000Z,64.83
2023-01-08T09:07:35.000Z,61.03
2023-01-08T09:17:34.000Z,57.41
2023-01-08T09:22:35.000Z,57.43
2023-01-08T09:27:35.000Z,61.48
2023-01-08T09:32:34.000Z,64.26
2023-01-08T09:37:35.000Z,70.86
2023-01-08T09:42:35.000Z,74.52
2023-01-08T09:47:35.000Z,83.64
2023-01-08T09:52:35.000Z,91.98
2023-01-08T09:57:34.000Z,99.43
2023-01-08T10:02:35.000Z,97.82
2023-01-08T10:07:34.000Z,98.46
2023-01-08T10:12:35.000Z,100
2023-01-08T10:17:35.000Z,100
2023-01-08T10:22:35.000Z,99.44
2023-01-08T10:27:35.000Z,98.43
2023-01-08T10:32:35.000Z,98.4
2023-01-08T10:37:35.000Z,86.38
2023-01-08T10:42:35.000Z,82.46
2023-01-08T10:47:35.000Z,79.6
2023-01-08T10:52:35.000Z,92.96
2023-01-08T10:57:34.000Z,93.23
2023-01-08T11:02:35.000Z,95.49
2023-01-08T11:07:34.000Z,99.91
2023-01-08T11:12:35.000Z,100
2023-01-08T11:17:35.000Z,100
2023-01-08T11:22:35.000Z,100
2023-01-08T11:27:35.000Z,100
2023-01-08T11:32:34.000Z,100
2023-01-08T11:37:34.000Z,100
2023-01-08T11:42:34.000Z,100
2023-01-08T11:47:35.000Z,100
2023-01-08T11:52:35.000Z,100
2023-01-08T11:57:35.000Z,100
2023-01-08T12:02:35.000Z,100
2023-01-08T12:07:34.000Z,100
2023-01-08T12:17:35.000Z,100
2023-01-08T12:22:35.000Z,100
2023-01-08T12:28:05.000Z,100
2023-01-08T12:32:35.000Z,100
2023-01-08T12:42:35.000Z,100
2023-01-08T12:47:35.000Z,100
2023-01-08T12:52:35.000Z,100
2023-01-08T12:57:35.000Z,100
2023-01-08T13:02:35.000Z,100
2023-01-08T13:07:35.000Z,100
2023-01-08T13:12:35.000Z,100
2023-01-08T13:17:35.000Z,100
2023-01-08T13:22:34.000Z,100
2023-01-08T13:27:34.000Z,100
2023-01-08T13:32:35.000Z,100
2023-01-08T13:37:38.000Z,100
2023-01-08T13:42:35.000Z,100
2023-01-08T13:47:34.000Z,100
2023-01-08T13:52:35.000Z,100
2023-01-08T13:57:34.000Z,100
2023-01-08T14:02:35.000Z,100
2023-01-08T14:07:35.000Z,100
2023-01-08T14:12:35.000Z,100
2023-01-08T14:17:34.000Z,100
2023-01-08T14:22:35.000Z,100
2023-01-08T14:32:35.000Z,100
2023-01-08T14:37:34.000Z,100
2023-01-08T14:42:35.000Z,100
2023-01-08T14:47:35.000Z,100
2023-01-08T14:52:34.000Z,100
2023-01-08T14:57:34.000Z,100
2023-01-08T15:07:35.000Z,100
2023-01-08T15:12:35.000Z,100
2023-01-08T15:17:34.000Z,100
2023-01-08T15:27:35.000Z,100
2023-01-08T15:32:35.000Z,100
2023-01-08T15:42:34.000Z,100
2023-01-08T15:47:35.000Z,100
2023-01-08T15:52:34.000Z,100
2023-01-08T15:57:35.000Z,100
2023-01-08T16:02:36.000Z,100
2023-01-08T16:07:35.000Z,100
2023-01-08T16:12:35.000Z,100
2023-01-08T16:17:34.000Z,100
2023-01-08T16:22:35.000Z,100
2023-01-08T16:27:35.000Z,100
2023-01-08T16:32:35.000Z,100
2023-01-08T16:37:35.000Z,100
2023-01-08T16:42:35.000Z,100
2023-01-08T16:47:34.000Z,100
2023-01-08T16:52:35.000Z,100
2023-01-08T16:57:34.000Z,100
2023-01-08T17:02:35.000Z,100
2023-01-08T17:07:34.000Z,100
2023-01-08T17:12:35.000Z,100
2023-01-08T17:17:34.000Z,100
2023-01-08T17:27:34.000Z,100
2023-01-08T17:32:36.000Z,100
2023-01-08T17:37:35.000Z,100
2023-01-08T17:42:34.000Z,100
2023-01-08T17:47:35.000Z,100
2023-01-08T17:52:35.000Z,100
2023-01-08T17:57:35.000Z,100
2023-01-08T18:02:35.000Z,100
2023-01-08T18:07:35.000Z,100
2023-01-08T18:12:35.000Z,100
2023-01-08T18:17:35.000Z,100
2023-01-08T18:22:35.000Z,100
2023-01-08T18:27:34.000Z,100
2023-01-08T18:37:35.000Z,100
2023-01-08T18:42:35.000Z,100
2023-01-08T18:47:34.000Z,100
2023-01-08T18:52:35.000Z,100
2023-01-08T18:57:34.000Z,100
2023-01-08T19:02:35.000Z,100
2023-01-08T19:07:35.000Z,100
2023-01-08T19:12:34.000Z,100
2023-01-08T19:17:35.000Z,100
2023-01-08T19:22:34.000Z,100
2023-01-08T19:27:35.000Z,100
2023-01-08T19:32:34.000Z,100
2023-01-08T19:37:35.000Z,100
2023-01-08T19:42:34.000Z,100
2023-01-08T19:47:35.000Z,100
2023-01-08T19:52:34.000Z,100
2023-01-08T19:57:35.000Z,100
2023-01-08T20:02:35.000Z,100
2023-01-08T20:07:35.000Z,100
2023-01-08T20:12:35.000Z,100
2023-01-08T20:17:35.000Z,100
2023-01-08T20:22:35.000Z,100
2023-01-08T20:27:35.000Z,100
2023-01-08T20:32:35.000Z,100
2023-01-08T20:37:35.000Z,100
2023-01-08T20:42:43.000Z,100
2023-01-08T20:47:34.000Z,100
2023-01-08T20:52:34.000Z,100
2023-01-08T20:57:35.000Z,100
2023-01-08T21:02:35.000Z,100
2023-01-08T21:07:34.000Z,100
2023-01-08T21:12:35.000Z,100
2023-01-08T21:17:35.000Z,100
2023-01-08T21:22:34.000Z,100
2023-01-08T21:27:37.000Z,100
2023-01-08T21:32:35.000Z,100
2023-01-08T21:37:35.000Z,100
2023-01-08T21:42:34.000Z,100
2023-01-08T21:57:35.000Z,100
2023-01-08T22:02:34.000Z,100
2023-01-08T22:07:34.000Z,100
2023-01-08T22:12:35.000Z,100
2023-01-08T22:17:34.000Z,100
2023-01-08T22:22:35.000Z,100
2023-01-08T22:27:35.000Z,100
2023-01-08T22:32:35.000Z,100
2023-01-08T22:37:34.000Z,100
2023-01-08T22:42:35.000Z,100
2023-01-08T22:47:34.000Z,100
2023-01-08T22:52:35.000Z,100
2023-01-08T22:57:34.000Z,100
2023-01-08T23:02:35.000Z,100
2023-01-08T23:07:35.000Z,100
2023-01-08T23:12:35.000Z,100
2023-01-08T23:17:35.000Z,100
2023-01-08T23:22:35.000Z,100
2023-01-08T23:27:35.000Z,100
2023-01-08T23:32:35.000Z,100
2023-01-08T23:37:34.000Z,100
2023-01-08T23:42:35.000Z,100
2023-01-08T23:47:35.000Z,100
2023-01-08T23:52:35.000Z,100
2023-01-08T23:57:34.000Z,100
